Time;durP1;ratioP1;P1;durP2;ratioP2;P2;SDS_P1;SDS_P2;PMS_P1;PMS_P2;Temp;Humidity;BMP_temperature;BMP_pressure;BME280_temperature;BME280_humidity;BME280_pressure;Samples;Min_cycle;Max_cycle;Signal;HPM_P1;HPM_P2
2023/03/31 00:01:32;;;;;;;8.40;3.00;;;;;;;9.80;100.00;100397.63;4992013;28;20022;-91
2023/03/31 00:04:04;;;;;;;9.73;3.47;;;;;;;9.79;100.00;100377.81;4993332;28;20129;-90
2023/03/31 00:06:36;;;;;;;10.18;3.22;;;;;;;9.78;100.00;100363.16;4992261;28;20072;-90
2023/03/31 00:09:14;;;;;;;8.00;2.80;;;;;;;9.82;100.00;100361.38;4992092;28;20036;-90
2023/03/31 00:11:40;;;;;;;6.28;2.60;;;;;;;9.83;100.00;100355.25;4993469;28;20561;-92
2023/03/31 00:14:07;;;;;;;10.02;2.70;;;;;;;9.82;100.00;100362.22;4993478;28;20034;-91
2023/03/31 00:16:37;;;;;;;10.77;2.70;;;;;;;9.77;100.00;100345.09;4975946;28;20105;-92
2023/03/31 00:19:03;;;;;;;7.10;2.80;;;;;;;9.74;100.00;100346.03;4975382;28;20390;-91
2023/03/31 00:21:32;;;;;;;8.98;2.75;;;;;;;9.72;100.00;100326.25;4992533;28;20027;-91
2023/03/31 00:24:06;;;;;;;8.23;2.70;;;;;;;9.77;100.00;100326.97;4991421;28;20050;-91
2023/03/31 00:26:33;;;;;;;7.97;2.55;;;;;;;9.72;100.00;100310.72;4956573;28;20394;-90
2023/03/31 00:28:58;;;;;;;5.80;2.33;;;;;;;9.79;100.00;100325.19;4974263;28;20085;-90
2023/03/31 00:31:25;;;;;;;7.88;2.47;;;;;;;9.79;100.00;100315.69;5005596;28;20022;-91
2023/03/31 00:33:51;;;;;;;7.93;2.15;;;;;;;9.78;100.00;100307.97;4991657;28;20450;-90
2023/03/31 00:36:20;;;;;;;8.02;2.30;;;;;;;9.80;100.00;100304.44;4988151;28;20470;-91
2023/03/31 00:38:50;;;;;;;6.05;2.20;;;;;;;9.79;100.00;100299.31;4989546;28;20026;-90
2023/03/31 00:41:15;;;;;;;7.60;2.28;;;;;;;9.79;100.00;100291.56;5007270;28;20034;-91
2023/03/31 00:44:21;;;;;;;6.97;1.90;;;;;;;9.79;100.00;100292.41;4996399;28;20364;-90
2023/03/31 00:47:06;;;;;;;8.57;2.33;;;;;;;9.75;100.00;100288.22;4995425;28;20030;-91
2023/03/31 00:49:34;;;;;;;8.15;2.28;;;;;;;9.71;100.00;100277.97;4992139;28;20026;-91
2023/03/31 00:52:14;;;;;;;6.57;2.00;;;;;;;9.68;100.00;100272.91;4994606;28;20387;-91
2023/03/31 00:54:43;;;;;;;8.35;2.20;;;;;;;9.65;100.00;100271.25;4995719;28;20482;-91
2023/03/31 00:57:09;;;;;;;6.43;2.17;;;;;;;9.65;100.00;100271.25;4996327;28;20044;-91
2023/03/31 00:59:40;;;;;;;9.82;1.90;;;;;;;9.57;100.00;100256.81;4994871;28;20026;-90
2023/03/31 01:02:06;;;;;;;7.13;1.85;;;;;;;9.56;100.00;100260.31;4995475;28;20113;-91
2023/03/31 01:04:40;;;;;;;10.23;2.13;;;;;;;9.44;100.00;100238.22;4978683;28;20023;-91
2023/03/31 01:07:17;;;;;;;9.75;2.25;;;;;;;9.51;100.00;100245.78;4976173;28;20026;-91
2023/03/31 01:09:46;;;;;;;9.15;2.15;;;;;;;9.50;100.00;100238.91;4995566;28;20034;-91
2023/03/31 01:12:14;;;;;;;9.60;2.33;;;;;;;9.49;100.00;100234.63;4995132;28;20034;-90
2023/03/31 01:14:40;;;;;;;7.90;2.00;;;;;;;9.51;100.00;100229.41;4996065;28;20018;-90
2023/03/31 01:17:08;;;;;;;9.88;2.10;;;;;;;9.64;100.00;100237.66;4994662;28;20509;-91
2023/03/31 01:20:05;;;;;;;9.65;2.10;;;;;;;9.66;100.00;100228.97;4993722;28;20031;-90
2023/03/31 01:23:00;;;;;;;8.60;2.10;;;;;;;9.69;100.00;100218.50;4999926;28;20045;-91
2023/03/31 01:25:32;;;;;;;7.63;1.88;;;;;;;9.70;100.00;100215.03;4994618;28;20061;-91
2023/03/31 01:28:07;;;;;;;7.93;2.13;;;;;;;9.74;100.00;100215.78;4995949;28;20105;-91
2023/03/31 01:30:44;;;;;;;;;;;;;;;9.78;100.00;100205.28;4995886;28;20036;-90
2023/03/31 01:33:15;;;;;;;9.00;2.13;;;;;;;9.81;100.00;100192.28;4963989;28;19957;-91
2023/03/31 01:35:44;;;;;;;10.57;1.73;;;;;;;9.82;100.00;100185.34;4997633;28;20033;-90
2023/03/31 01:38:31;;;;;;;9.43;2.20;;;;;;;9.84;100.00;100186.13;4994976;28;20427;-90
2023/03/31 01:41:25;;;;;;;3.88;1.63;;;;;;;9.86;100.00;100189.53;4994591;28;20022;-89
2023/03/31 01:44:09;;;;;;;7.72;1.83;;;;;;;9.75;100.00;100166.56;4995015;28;20084;-90
2023/03/31 01:46:49;;;;;;;7.13;2.00;;;;;;;9.82;100.00;100172.41;5004564;28;20117;-91
2023/03/31 01:49:22;;;;;;;10.52;1.90;;;;;;;9.72;100.00;100156.31;4994462;28;20034;-90
2023/03/31 01:51:58;;;;;;;8.77;1.83;;;;;;;9.79;100.00;100157.81;4994521;28;20034;-90
2023/03/31 01:54:38;;;;;;;7.15;1.73;;;;;;;9.81;100.00;100156.03;4976785;28;20509;-90
2023/03/31 01:57:18;;;;;;;12.10;2.00;;;;;;;9.75;100.00;100145.88;4976931;28;20030;-90
2023/03/31 02:00:02;;;;;;;9.23;2.00;;;;;;;9.66;100.00;100128.03;4993612;28;20037;-91
2023/03/31 02:02:36;;;;;;;8.80;2.10;;;;;;;9.79;100.00;100139.69;4994841;28;20054;-90
2023/03/31 02:05:29;;;;;;;10.50;2.08;;;;;;;9.74;100.00;100117.44;4995049;28;20109;-91
2023/03/31 02:08:01;;;;;;;7.60;2.10;;;;;;;9.70;100.00;100100.31;4977592;28;20036;-91
2023/03/31 02:10:30;;;;;;;10.05;2.00;;;;;;;9.82;100.00;100113.72;4976953;28;20081;-91
2023/03/31 02:12:58;;;;;;;9.07;2.30;;;;;;;9.77;100.00;100091.44;5004559;28;20026;-91
2023/03/31 02:15:30;;;;;;;7.32;1.92;;;;;;;9.75;100.00;100098.44;4997354;28;20034;-92
2023/03/31 02:17:58;;;;;;;4.93;1.70;;;;;;;9.71;100.00;100068.38;4994116;28;20026;-90
2023/03/31 02:20:27;;;;;;;7.78;1.83;;;;;;;9.77;100.00;100081.09;4990112;28;20031;-91
2023/03/31 02:22:55;;;;;;;10.98;1.95;;;;;;;9.68;100.00;100058.97;4993400;28;20029;-91
2023/03/31 02:25:40;;;;;;;10.15;2.10;;;;;;;9.71;100.00;100056.28;4994840;28;20435;-91
2023/03/31 02:28:12;;;;;;;13.93;2.33;;;;;;;9.66;100.00;100034.88;4992895;28;20038;-91
2023/03/31 02:30:49;;;;;;;7.25;1.80;;;;;;;9.73;100.00;100041.56;4994411;28;20088;-90
2023/03/31 02:33:16;;;;;;;12.85;2.03;;;;;;;9.75;100.00;100049.28;4995372;28;20026;-92
2023/03/31 02:35:42;;;;;;;8.68;1.90;;;;;;;9.73;100.00;100033.78;4994586;28;20398;-91
2023/03/31 02:38:08;;;;;;;8.55;2.20;;;;;;;9.72;100.00;100018.31;4993921;28;20496;-91
2023/03/31 02:40:34;;;;;;;9.00;2.17;;;;;;;9.74;100.00;100019.09;4994582;28;20030;-90
2023/03/31 02:43:00;;;;;;;11.65;2.30;;;;;;;9.66;100.00;99997.81;4996379;28;20037;-90
2023/03/31 02:45:39;;;;;;;10.40;2.40;;;;;;;9.63;100.00;99990.13;4977148;28;20034;-91
2023/03/31 02:48:29;;;;;;;11.55;2.95;;;;;;;9.61;100.00;99982.44;4992691;28;20403;-90
2023/03/31 02:51:01;;;;;;;11.55;2.53;;;;;;;9.71;100.00;99991.56;4976918;28;20494;-91
2023/03/31 02:53:41;;;;;;;9.88;2.00;;;;;;;9.73;100.00;99970.84;5004070;28;20041;-91
2023/03/31 02:56:23;;;;;;;14.50;2.42;;;;;;;9.74;100.00;99968.19;4977156;28;20032;-90
2023/03/31 02:59:26;;;;;;;9.63;2.47;;;;;;;9.74;100.00;99967.34;4992912;28;20030;-91
2023/03/31 03:02:32;;;;;;;13.32;2.70;;;;;;;9.73;100.00;99950.97;4994601;28;20021;-90
2023/03/31 03:05:07;;;;;;;12.27;2.80;;;;;;;9.72;100.00;99938.94;4985122;28;20076;-90
2023/03/31 03:07:54;;;;;;;10.90;2.60;;;;;;;9.64;100.00;99920.22;5004303;28;20021;-92
2023/03/31 03:10:47;;;;;;;13.77;3.47;;;;;;;9.69;100.00;99925.28;4974555;28;20097;-91
2023/03/31 03:13:41;;;;;;;8.45;2.20;;;;;;;9.62;100.00;99905.69;4981717;28;20018;-92
2023/03/31 03:16:18;;;;;;;11.88;2.80;;;;;;;9.64;100.00;99909.03;4994207;28;20030;-92
2023/03/31 03:18:51;;;;;;;10.30;2.55;;;;;;;9.66;100.00;99904.66;4991839;28;20027;-91
2023/03/31 03:21:17;;;;;;;10.97;2.47;;;;;;;9.60;100.00;99899.69;4993609;28;20478;-91
2023/03/31 03:23:42;;;;;;;9.35;2.40;;;;;;;9.65;100.00;99897.78;5008123;28;20118;-91
2023/03/31 03:26:08;;;;;;;13.00;2.67;;;;;;;9.67;100.00;99903.75;4993057;28;20561;-91
2023/03/31 03:28:33;;;;;;;10.43;2.45;;;;;;;9.64;100.00;99902.13;4992830;28;20032;-92
2023/03/31 03:30:59;;;;;;;11.82;2.20;;;;;;;9.65;100.00;99884.84;4994020;28;20026;-91
2023/03/31 03:33:24;;;;;;;11.52;2.47;;;;;;;9.59;100.00;99890.25;4993725;28;20101;-92
2023/03/31 03:35:50;;;;;;;9.13;2.58;;;;;;;9.64;100.00;99883.16;5005272;28;20037;-91
2023/03/31 03:38:15;;;;;;;15.23;2.58;;;;;;;9.61;100.00;99873.78;4996505;28;20025;-92
2023/03/31 03:40:41;;;;;;;16.20;2.95;;;;;;;9.60;100.00;99874.69;4987410;28;20041;-90
2023/03/31 03:43:06;;;;;;;12.00;2.40;;;;;;;9.60;100.00;99866.91;5009033;28;20026;-92
2023/03/31 03:45:33;;;;;;;8.52;2.50;;;;;;;9.58;100.00;99860.94;4993440;28;20034;-91
2023/03/31 03:47:59;;;;;;;11.40;2.35;;;;;;;9.60;100.00;99866.06;4993246;28;20058;-92
2023/03/31 03:50:24;;;;;;;12.75;2.38;;;;;;;9.55;100.00;99852.47;4991959;28;20113;-91
2023/03/31 03:52:50;;;;;;;11.15;3.35;;;;;;;9.59;100.00;99848.84;4979948;28;20113;-92
2023/03/31 03:55:16;;;;;;;12.02;2.40;;;;;;;9.59;100.00;99830.75;4976264;28;20040;-92
2023/03/31 03:57:42;;;;;;;11.35;2.15;;;;;;;9.63;100.00;99840.06;4976332;28;20023;-91
2023/03/31 04:00:11;;;;;;;12.57;2.42;;;;;;;9.62;100.00;99828.88;4993203;28;20041;-92
2023/03/31 04:02:37;;;;;;;11.80;2.53;;;;;;;9.52;100.00;99802.50;4993257;28;20061;-92
2023/03/31 04:05:03;;;;;;;15.30;1.98;;;;;;;9.52;100.00;99797.34;5001794;28;20113;-91
2023/03/31 04:07:29;;;;;;;10.20;2.03;;;;;;;9.47;100.00;99788.06;4975666;28;20031;-92
2023/03/31 04:09:54;;;;;;;9.55;2.00;;;;;;;9.51;100.00;99794.78;4991172;28;20030;-91
2023/03/31 04:12:20;;;;;;;10.05;2.17;;;;;;;9.46;100.00;99784.63;4993364;28;20033;-91
2023/03/31 04:14:45;;;;;;;8.68;2.00;;;;;;;9.45;100.00;99780.34;4993644;28;20105;-92
2023/03/31 04:17:14;;;;;;;10.57;2.15;;;;;;;9.42;100.00;99780.44;4995114;28;20045;-91
2023/03/31 04:19:41;;;;;;;7.60;1.98;;;;;;;9.46;100.00;99782.03;4983036;28;20120;-91
2023/03/31 04:22:10;;;;;;;9.38;2.35;;;;;;;9.44;100.00;99776.06;4995532;28;20022;-91
2023/03/31 04:24:37;;;;;;;10.75;1.85;;;;;;;9.38;100.00;99765.09;4997456;28;20165;-92
2023/03/31 04:27:06;;;;;;;9.00;2.13;;;;;;;9.37;100.00;99759.09;4996323;28;20544;-92
2023/03/31 04:29:32;;;;;;;13.20;2.25;;;;;;;9.39;100.00;99743.53;4994949;28;20132;-92
2023/03/31 04:31:58;;;;;;;8.68;1.88;;;;;;;9.34;100.00;99730.78;4992451;28;20030;-92
2023/03/31 04:34:33;;;;;;;9.27;1.90;;;;;;;9.36;100.00;99726.34;4992432;28;20018;-92
2023/03/31 04:37:01;;;;;;;10.60;1.95;;;;;;;9.39;100.00;99736.59;4979602;28;20034;-91
2023/03/31 04:39:31;;;;;;;7.28;1.90;;;;;;;9.39;100.00;99725.41;4995565;28;20034;-92
2023/03/31 04:41:57;;;;;;;8.77;2.05;;;;;;;9.39;100.00;99713.34;4995547;28;20113;-92
2023/03/31 04:44:23;;;;;;;11.02;1.90;;;;;;;9.34;100.00;99714.41;4995504;28;21599;-91
2023/03/31 04:46:48;;;;;;;6.25;1.65;;;;;;;9.38;100.00;99711.63;4995794;28;20030;-92
2023/03/31 04:49:14;;;;;;;9.75;1.77;;;;;;;9.31;100.00;99699.84;4987324;28;20049;-89
2023/03/31 04:51:40;;;;;;;8.38;1.83;;;;;;;9.31;100.00;99693.81;4995604;28;20069;-89
2023/03/31 04:54:05;;;;;;;6.90;1.90;;;;;;;9.33;100.00;99682.53;4996094;28;20026;-89
2023/03/31 04:56:31;;;;;;;8.15;1.85;;;;;;;9.29;100.00;99678.34;4994727;28;20026;-89
2023/03/31 04:58:56;;;;;;;11.13;2.05;;;;;;;9.32;100.00;99686.00;4995223;28;20038;-89
2023/03/31 05:01:22;;;;;;;7.68;1.77;;;;;;;9.36;100.00;99681.56;4980046;28;20475;-89
2023/03/31 05:03:47;;;;;;;12.93;2.25;;;;;;;9.35;100.00;99685.03;4988174;28;20043;-89
2023/03/31 05:06:14;;;;;;;11.77;2.00;;;;;;;9.27;100.00;99675.00;5015333;28;20076;-89
2023/03/31 05:08:40;;;;;;;7.45;1.88;;;;;;;9.24;100.00;99661.31;5005648;28;20034;-89
2023/03/31 05:11:05;;;;;;;10.85;2.22;;;;;;;9.29;100.00;99662.00;4998276;28;20195;-89
2023/03/31 05:13:31;;;;;;;10.50;1.75;;;;;;;9.23;100.00;99649.28;5009370;28;20433;-89
2023/03/31 05:16:08;;;;;;;9.85;1.83;;;;;;;9.29;100.00;99659.41;4977802;28;20034;-89
2023/03/31 05:18:34;;;;;;;10.35;2.10;;;;;;;9.30;100.00;99653.34;4994987;28;20026;-89
2023/03/31 05:21:11;;;;;;;7.45;1.67;;;;;;;9.22;100.00;99632.94;4994255;28;20026;-89
2023/03/31 05:23:36;;;;;;;8.18;1.90;;;;;;;9.27;100.00;99633.63;4993866;28;20034;-90
2023/03/31 05:26:02;;;;;;;8.15;1.73;;;;;;;9.25;100.00;99627.66;4976169;28;20027;-89
2023/03/31 05:28:30;;;;;;;6.18;1.60;;;;;;;9.18;100.00;99621.03;4996802;28;20585;-89
2023/03/31 05:30:59;;;;;;;10.38;1.90;;;;;;;9.19;100.00;99627.91;4978236;28;20060;-88
2023/03/31 05:33:24;;;;;;;8.90;2.22;;;;;;;9.13;100.00;99604.88;4990871;28;20486;-89
2023/03/31 05:35:53;;;;;;;9.23;1.88;;;;;;;9.17;100.00;99608.16;4985812;28;20045;-89
2023/03/31 05:38:18;;;;;;;9.38;2.05;;;;;;;9.18;100.00;99613.28;4995129;28;20026;-89
2023/03/31 05:40:44;;;;;;;7.32;1.90;;;;;;;9.16;100.00;99601.31;4995445;28;20033;-89
2023/03/31 05:43:09;;;;;;;6.20;1.95;;;;;;;9.22;100.00;99612.25;4994362;28;20026;-89
2023/03/31 05:45:35;;;;;;;8.45;2.10;;;;;;;9.21;100.00;99600.22;4995327;28;20387;-89
2023/03/31 05:48:01;;;;;;;9.40;2.10;;;;;;;9.17;100.00;99593.50;4995010;28;20958;-92
2023/03/31 05:50:26;;;;;;;7.78;2.10;;;;;;;9.18;100.00;99592.59;5014614;28;20029;-92
2023/03/31 05:52:51;;;;;;;8.77;2.22;;;;;;;9.17;100.00;99588.31;5015477;28;20034;-92
2023/03/31 05:55:17;;;;;;;6.70;1.90;;;;;;;9.15;100.00;99568.59;4979836;28;20379;-92
2023/03/31 05:57:43;;;;;;;6.68;1.92;;;;;;;9.27;100.00;99592.25;4958966;28;20030;-92
2023/03/31 06:00:10;;;;;;;7.95;2.08;;;;;;;9.29;100.00;99599.94;5007207;28;20030;-92
2023/03/31 06:02:36;;;;;;;7.65;2.13;;;;;;;9.24;100.00;99584.59;5015305;28;20510;-92
2023/03/31 06:05:01;;;;;;;7.47;1.80;;;;;;;9.27;100.00;99578.50;5015427;28;20045;-92
2023/03/31 06:07:29;;;;;;;8.02;2.20;;;;;;;9.35;100.00;99587.59;4985268;28;20026;-92
2023/03/31 06:09:55;;;;;;;7.78;1.90;;;;;;;9.33;100.00;99579.09;4995796;28;20419;-93
2023/03/31 06:12:20;;;;;;;10.98;2.13;;;;;;;9.26;100.00;99567.31;4993723;28;20022;-93
2023/03/31 06:14:49;;;;;;;8.63;1.95;;;;;;;9.37;100.00;99587.56;5010464;28;20117;-92
2023/03/31 06:17:15;;;;;;;7.88;2.10;;;;;;;9.27;100.00;99563.81;4977408;28;20092;-93
2023/03/31 06:19:40;;;;;;;8.73;1.85;;;;;;;9.32;100.00;99569.66;5002579;28;20053;-93
2023/03/31 06:22:08;;;;;;;7.53;1.75;;;;;;;9.30;100.00;99574.03;4999963;28;20032;-93
2023/03/31 06:24:34;;;;;;;10.02;2.50;;;;;;;9.28;100.00;99556.91;4986830;28;20019;-94
2023/03/31 06:27:02;;;;;;;8.18;1.90;;;;;;;9.30;100.00;99576.59;4990954;28;20030;-92
2023/03/31 06:29:28;;;;;;;5.95;1.67;;;;;;;9.21;100.00;99552.88;4966870;28;20069;-94
2023/03/31 06:31:54;;;;;;;9.10;2.10;;;;;;;9.19;100.00;99557.25;4967468;28;20026;-92
2023/03/31 06:34:25;;;;;;;6.95;2.50;;;;;;;9.17;100.00;99552.13;4968766;28;20081;-93
2023/03/31 06:36:50;;;;;;;7.25;2.50;;;;;;;9.16;100.00;99542.69;4979018;28;20119;-93
2023/03/31 06:39:16;;;;;;;11.25;2.30;;;;;;;9.21;100.00;99556.28;4982547;28;20057;-93
2023/03/31 06:41:44;;;;;;;7.05;2.08;;;;;;;9.16;100.00;99552.19;4981828;28;20033;-93
2023/03/31 06:44:38;;;;;;;;;;;;;;;;;;;;;
2023/03/31 06:47:13;;;;;;;7.70;2.15;;;;;;;9.22;100.00;99550.19;4981998;28;20034;-94
2023/03/31 06:49:56;;;;;;;8.05;2.13;;;;;;;9.26;100.00;99549.19;4984386;28;20034;-94
2023/03/31 06:52:26;;;;;;;8.60;2.08;;;;;;;9.20;100.00;99522.75;4998152;28;20054;-93
2023/03/31 06:54:57;;;;;;;8.73;2.08;;;;;;;9.28;100.00;99531.84;4984597;28;20026;-93
2023/03/31 06:57:32;;;;;;;9.40;2.38;;;;;;;9.15;100.00;99498.78;4982532;28;20049;-93
2023/03/31 06:59:57;;;;;;;7.55;2.10;;;;;;;9.15;100.00;99497.06;4972025;28;20030;-94
2023/03/31 07:02:26;;;;;;;7.85;2.50;;;;;;;9.20;100.00;99513.25;4982689;28;20166;-94
2023/03/31 07:04:57;;;;;;;8.65;2.10;;;;;;;9.28;100.00;99539.63;4984545;28;20038;-93
2023/03/31 07:07:22;;;;;;;8.32;2.38;;;;;;;9.12;100.00;99512.69;4982506;28;20065;-94
2023/03/31 07:10:02;;;;;;;8.40;2.35;;;;;;;9.20;100.00;99517.56;4963824;28;20046;-94
2023/03/31 07:12:33;;;;;;;8.90;2.47;;;;;;;9.18;100.00;99516.78;4991341;28;20033;-96
2023/03/31 07:15:09;;;;;;;10.75;4.10;;;;;;;9.19;100.00;99539.16;4972170;28;20455;-94
2023/03/31 07:18:00;;;;;;;10.63;2.95;;;;;;;9.19;100.00;99534.81;4986168;28;20092;-96
2023/03/31 07:20:27;;;;;;;9.07;3.10;;;;;;;9.26;100.00;99518.16;4990764;28;20042;-94
2023/03/31 07:22:55;;;;;;;10.95;3.67;;;;;;;9.34;100.00;99500.63;4972092;28;20029;-94
2023/03/31 07:25:24;;;;;;;7.88;3.55;;;;;;;9.34;100.00;99484.25;4996908;28;20026;-93
2023/03/31 07:27:50;;;;;;;9.40;3.83;;;;;;;9.39;100.00;99480.56;4983883;28;20033;-93
2023/03/31 07:30:24;;;;;;;10.18;3.75;;;;;;;9.54;100.00;99486.03;4983282;28;20026;-93
2023/03/31 07:32:51;;;;;;;9.48;3.63;;;;;;;9.63;100.00;99478.72;4988232;28;20040;-94
2023/03/31 07:35:20;;;;;;;9.18;4.03;;;;;;;9.70;100.00;99490.47;4982664;28;20033;-93
2023/03/31 07:37:50;;;;;;;13.13;4.22;;;;;;;9.74;100.00;99488.63;4997342;28;20702;-94
2023/03/31 07:40:27;;;;;;;12.73;4.22;;;;;;;9.71;100.00;99476.66;4981804;28;20053;-92
2023/03/31 07:42:53;;;;;;;10.15;4.05;;;;;;;9.62;100.00;99461.50;4983794;28;20128;-94
2023/03/31 07:45:20;;;;;;;12.20;3.80;;;;;;;9.60;100.00;99467.66;4977343;28;20023;-94
2023/03/31 07:47:46;;;;;;;13.30;3.45;;;;;;;9.69;100.00;99467.28;4980321;28;20031;-94
2023/03/31 07:50:27;;;;;;;10.60;3.20;;;;;;;9.77;100.00;99473.78;4966815;28;20052;-96
2023/03/31 07:53:02;;;;;;;10.25;2.75;;;;;;;9.75;100.00;99454.09;4990506;28;20125;-95
2023/03/31 07:55:30;;;;;;;11.00;3.35;;;;;;;9.88;100.00;99476.78;4988145;28;20054;-93
2023/03/31 07:57:56;;;;;;;10.57;2.83;;;;;;;9.89;100.00;99475.03;4972472;28;20026;-91
2023/03/31 08:00:25;;;;;;;13.05;3.33;;;;;;;9.86;100.00;99457.03;4983269;28;20041;-94
2023/03/31 08:02:53;;;;;;;9.63;2.55;;;;;;;9.94;100.00;99457.56;4986625;28;20078;-95
2023/03/31 08:05:20;;;;;;;12.95;3.20;;;;;;;10.00;100.00;99452.13;4977213;28;20789;-94
2023/03/31 08:07:50;;;;;;;13.10;2.80;;;;;;;10.16;100.00;99460.06;4990606;28;20038;-93
2023/03/31 08:10:21;;;;;;;11.10;3.05;;;;;;;10.31;100.00;99456.81;4971471;28;20045;-94
2023/03/31 08:12:47;;;;;;;13.15;2.90;;;;;;;10.41;100.00;99454.66;4984098;28;20030;-92
2023/03/31 08:15:13;;;;;;;14.80;3.00;;;;;;;10.52;100.00;99444.63;4974635;28;20023;-94
2023/03/31 08:17:42;;;;;;;20.00;3.28;;;;;;;10.50;100.00;99442.13;4999595;28;20403;-93
2023/03/31 08:20:09;;;;;;;13.68;3.20;;;;;;;10.61;100.00;99445.06;4983580;28;20030;-92
2023/03/31 08:22:39;;;;;;;15.40;2.97;;;;;;;10.68;100.00;99445.63;4983231;28;20050;-92
2023/03/31 08:25:08;;;;;;;12.00;3.05;;;;;;;10.61;100.00;99433.84;4976898;28;20037;-95
2023/03/31 08:27:41;;;;;;;16.88;3.20;;;;;;;10.66;100.00;99432.72;4985875;28;20018;-93
2023/03/31 08:30:09;;;;;;;18.15;4.05;;;;;;;10.68;100.00;99435.25;4968631;28;20030;-93
2023/03/31 08:32:35;;;;;;;14.35;3.42;;;;;;;10.74;100.00;99431.53;4985984;28;20030;-95
2023/03/31 08:35:00;;;;;;;15.85;3.85;;;;;;;10.88;100.00;99435.16;4976284;28;20029;-94
2023/03/31 08:37:30;;;;;;;12.32;3.53;;;;;;;10.92;100.00;99435.81;4969669;28;20052;-93
2023/03/31 08:39:56;;;;;;;15.98;3.97;;;;;;;11.04;100.00;99448.22;4987613;28;20030;-95
2023/03/31 08:42:49;;;;;;;14.73;4.15;;;;;;;11.20;100.00;99449.16;5002003;28;20086;-92
2023/03/31 08:45:38;;;;;;;17.77;4.15;;;;;;;11.28;100.00;99452.22;4973227;28;20027;-93
2023/03/31 08:48:20;;;;;;;19.23;4.53;;;;;;;11.26;100.00;99430.69;4986694;28;20431;-93
2023/03/31 08:50:59;;;;;;;20.42;4.00;;;;;;;11.33;100.00;99433.81;4987178;28;20038;-94
2023/03/31 08:53:49;;;;;;;15.15;3.85;;;;;;;11.45;100.00;99444.47;4984099;28;20023;-93
2023/03/31 08:56:18;;;;;;;16.13;3.70;;;;;;;11.43;100.00;99440.25;4999926;28;20198;-91
2023/03/31 08:58:49;;;;;;;23.42;3.72;;;;;;;11.33;100.00;99420.84;4984979;28;20113;-93
2023/03/31 09:01:35;;;;;;;18.48;3.65;;;;;;;11.33;100.00;99420.84;4985912;28;20038;-95
2023/03/31 09:04:22;;;;;;;15.40;3.70;;;;;;;11.52;100.00;99434.63;4983966;28;20070;-92
2023/03/31 09:06:57;;;;;;;19.70;3.72;;;;;;;11.51;100.00;99437.28;4983675;28;20093;-93
2023/03/31 09:09:45;;;;;;;16.35;3.40;;;;;;;11.43;100.00;99417.75;4984631;28;20037;-94
2023/03/31 09:12:19;;;;;;;15.63;3.33;;;;;;;11.42;100.00;99415.22;4971914;28;20388;-95
2023/03/31 09:15:05;;;;;;;22.60;3.78;;;;;;;11.66;100.00;99426.97;4983847;28;20175;-93
2023/03/31 09:17:45;;;;;;;23.42;3.75;;;;;;;11.87;100.00;99423.28;5001591;28;20124;-93
2023/03/31 09:20:38;;;;;;;15.20;3.20;;;;;;;12.06;100.00;99417.16;4986281;28;20030;-93
2023/03/31 09:23:43;;;;;;;17.05;3.70;;;;;;;12.22;100.00;99420.59;4968583;28;20476;-95
2023/03/31 09:26:36;;;;;;;11.20;3.00;;;;;;;12.24;100.00;99413.56;4974622;28;20040;-93
2023/03/31 09:29:07;;;;;;;20.33;3.45;;;;;;;12.20;100.00;99406.88;4987263;28;20030;-93
2023/03/31 09:31:34;;;;;;;21.15;3.42;;;;;;;12.34;100.00;99393.16;4984612;28;20089;-93
2023/03/31 09:34:14;;;;;;;21.20;2.70;;;;;;;12.42;100.00;99386.59;4968688;28;20030;-93
2023/03/31 09:36:40;;;;;;;18.48;3.33;;;;;;;12.42;100.00;99402.19;4984160;28;20043;-92
2023/03/31 09:39:11;;;;;;;14.13;2.70;;;;;;;12.41;100.00;99397.94;4984004;28;20093;-93
2023/03/31 09:41:40;;;;;;;16.77;2.78;;;;;;;12.26;100.00;99403.94;4983297;28;20022;-93
2023/03/31 09:44:32;;;;;;;15.75;3.13;;;;;;;12.13;100.00;99397.72;4984419;28;20039;-93
2023/03/31 09:47:02;;;;;;;15.32;2.45;;;;;;;12.10;100.00;99400.47;4985486;28;20033;-93
2023/03/31 09:49:32;;;;;;;12.50;3.00;;;;;;;12.07;100.00;99382.47;4998266;28;20482;-92
2023/03/31 09:52:05;;;;;;;14.93;2.60;;;;;;;12.16;100.00;99392.34;4973109;28;20033;-92
2023/03/31 09:54:40;;;;;;;11.20;2.33;;;;;;;12.24;100.00;99385.84;5002496;28;20022;-92
2023/03/31 09:57:23;;;;;;;14.32;2.88;;;;;;;12.40;100.00;99411.00;4984485;28;20031;-92
2023/03/31 09:59:53;;;;;;;12.90;2.90;;;;;;;12.43;100.00;99401.25;4986859;28;20125;-91
2023/03/31 10:02:40;;;;;;;13.05;2.58;;;;;;;12.39;100.00;99381.56;4980387;28;20037;-92
2023/03/31 10:05:36;;;;;;;13.55;2.22;;;;;;;12.44;100.00;99376.13;4982675;28;20022;-92
2023/03/31 10:08:30;;;;;;;13.13;2.42;;;;;;;12.76;100.00;99366.56;4972742;28;20035;-92
2023/03/31 10:11:02;;;;;;;14.85;2.40;;;;;;;13.00;100.00;99391.16;4998109;28;20640;-93
2023/03/31 10:13:37;;;;;;;11.88;2.20;;;;;;;12.97;100.00;99362.72;4973723;28;20398;-91
2023/03/31 10:16:08;;;;;;;11.85;2.22;;;;;;;13.16;100.00;99372.94;4986751;28;20515;-93
2023/03/31 10:18:41;;;;;;;11.55;2.33;;;;;;;13.25;100.00;99375.00;4992742;28;20007;-93
2023/03/31 10:21:22;;;;;;;14.15;2.15;;;;;;;13.18;100.00;99360.66;5000849;28;20033;-94
2023/03/31 10:23:49;;;;;;;11.50;2.00;;;;;;;13.23;100.00;99375.13;4964410;28;20047;-96
2023/03/31 10:26:21;;;;;;;9.77;2.20;;;;;;;13.22;100.00;99364.78;4982640;28;20038;-92
2023/03/31 10:28:51;;;;;;;11.35;1.70;;;;;;;13.17;100.00;99366.84;4970408;28;20041;-92
2023/03/31 10:31:21;;;;;;;9.68;1.95;;;;;;;13.07;100.00;99358.66;4982613;28;20125;-92
2023/03/31 10:33:57;;;;;;;11.18;1.88;;;;;;;13.01;100.00;99349.47;4964523;28;20023;-93
2023/03/31 10:36:30;;;;;;;11.35;1.90;;;;;;;13.13;100.00;99353.16;4996810;28;20026;-92
2023/03/31 10:38:56;;;;;;;8.20;1.87;;;;;;;13.17;100.00;99361.63;4981184;28;20030;-91
2023/03/31 10:41:29;;;;;;;9.48;1.90;;;;;;;13.27;98.81;99376.59;4980829;28;20034;-92
2023/03/31 10:43:57;;;;;;;12.15;1.95;;;;;;;13.26;98.90;99372.31;4981491;28;20537;-92
2023/03/31 10:46:51;;;;;;;13.38;2.25;;;;;;;13.18;100.00;99358.06;4970586;28;20089;-92
2023/03/31 10:49:27;;;;;;;6.95;1.60;;;;;;;13.28;97.43;99367.88;4963531;28;20038;-91
2023/03/31 10:51:58;;;;;;;9.93;2.20;;;;;;;13.21;98.06;99344.91;4965204;28;20033;-90
2023/03/31 10:54:25;;;;;;;7.22;1.73;;;;;;;13.10;97.17;99347.25;4980136;28;20019;-91
2023/03/31 10:56:56;;;;;;;11.80;2.03;;;;;;;13.19;96.05;99365.78;4969777;28;20023;-92
2023/03/31 10:59:45;;;;;;;11.52;2.10;;;;;;;13.26;100.00;99351.50;4972874;28;20026;-93
2023/03/31 11:02:17;;;;;;;8.95;1.73;;;;;;;13.62;100.00;99355.47;4982752;28;20086;-93
2023/03/31 11:05:12;;;;;;;9.80;1.88;;;;;;;13.85;99.48;99352.31;4981895;28;20030;-91
2023/03/31 11:07:42;;;;;;;8.75;1.70;;;;;;;14.00;94.65;99348.75;4981542;28;20038;-92
2023/03/31 11:10:10;;;;;;;9.80;2.03;;;;;;;14.07;92.93;99347.44;4982757;28;20031;-93
2023/03/31 11:12:50;;;;;;;9.35;1.80;;;;;;;14.09;94.10;99331.72;4985054;28;20038;-93
2023/03/31 11:15:41;;;;;;;10.73;1.95;;;;;;;14.16;96.71;99341.66;4982801;28;20018;-93
2023/03/31 11:18:34;;;;;;;11.98;2.22;;;;;;;14.04;97.64;99339.00;4982692;28;20046;-92
2023/03/31 11:21:06;;;;;;;10.50;1.67;;;;;;;13.85;96.56;99350.53;4980952;28;20487;-91
2023/03/31 11:23:44;;;;;;;8.30;2.30;;;;;;;13.61;94.16;99343.38;4978980;28;20034;-92
2023/03/31 11:26:18;;;;;;;11.77;2.30;;;;;;;13.50;97.58;99340.59;4982638;28;20490;-92
2023/03/31 11:29:02;;;;;;;13.00;2.22;;;;;;;13.70;96.78;99342.81;4981028;28;20073;-91
2023/03/31 11:31:57;;;;;;;12.13;2.10;;;;;;;13.66;98.68;99313.50;4979975;28;20029;-92
2023/03/31 11:34:26;;;;;;;;;;;;;;;13.99;100.00;99328.03;4980045;28;20109;-93
2023/03/31 11:37:17;;;;;;;11.93;1.70;;;;;;;14.28;95.20;99334.00;4971474;28;20001;-93
2023/03/31 11:40:17;;;;;;;12.35;2.45;;;;;;;14.32;93.96;99320.72;4970885;28;20114;-93
2023/03/31 11:42:52;;;;;;;10.77;2.30;;;;;;;14.44;91.78;99314.75;4981629;28;20030;-91
2023/03/31 11:45:21;;;;;;;12.82;2.40;;;;;;;14.59;93.90;99315.53;4981412;28;20030;-92
2023/03/31 11:47:51;;;;;;;13.48;2.10;;;;;;;14.68;92.57;99307.09;4980476;28;20109;-92
2023/03/31 11:50:25;;;;;;;10.13;2.13;;;;;;;14.78;90.33;99297.75;4971204;28;20023;-92
2023/03/31 11:53:04;;;;;;;11.35;2.40;;;;;;;14.74;87.26;99290.22;4972135;28;20105;-96